4XPDC LLHZ-LLNN
Flight info
| Callsign | 4XPDC |
|---|---|
| Flight time | N/A |
| Altitude | 1200 |
| Route | SFAIM APOLN ARENA HTZUK RIDNG ROKCH PARDS LLBG NSHRM |
| Aircraft | BE36/L-BDFGLORY/S |
Departure
| Time | 2026-05-07 19:31 |
|---|---|
| Airport | Herzliya Airport (LLHZ) |
Arrival
| Time | N/A |
|---|---|
| Airport | LLNN |
| Time | Latitude | Longitude | Altitude | Speed | Heading |
|---|---|---|---|---|---|
| 2026-05-07 19:23 | 32.17977 | 34.83823 | 123 ft | 0 kts | 200° |
| 2026-05-07 19:26 | 32.17978 | 34.83823 | 123 ft | 0 kts | 200° |
| 2026-05-07 19:29 | 32.17977 | 34.83823 | 123 ft | 1 kts | 200° |
| 2026-05-07 19:29 | 32.17957 | 34.83823 | 123 ft | 5 kts | 127° |
| 2026-05-07 19:29 | 32.17946 | 34.83861 | 122 ft | 4 kts | 81° |
| 2026-05-07 19:29 | 32.17940 | 34.83881 | 121 ft | 0 kts | 152° |
| 2026-05-07 19:30 | 32.17936 | 34.83881 | 121 ft | 4 kts | 188° |
| 2026-05-07 19:30 | 32.17923 | 34.83820 | 121 ft | 22 kts | 292° |
| 2026-05-07 19:30 | 32.18057 | 34.83334 | 138 ft | 90 kts | 293° |
| 2026-05-07 19:30 | 32.18336 | 34.82601 | 434 ft | 101 kts | 310° |
| 2026-05-07 19:31 | 32.18852 | 34.82014 | 692 ft | 104 kts | 339° |
| 2026-05-07 19:31 | 32.19501 | 34.81568 | 919 ft | 111 kts | 333° |
| 2026-05-07 19:31 | 32.20312 | 34.81149 | 796 ft | 128 kts | 343° |
| 2026-05-07 19:31 | 32.21086 | 34.80730 | 721 ft | 142 kts | 320° |
| 2026-05-07 19:32 | 32.21074 | 34.79684 | 841 ft | 147 kts | 216° |
| 2026-05-07 19:32 | 32.20091 | 34.79571 | 1078 ft | 141 kts | 180° |
| 2026-05-07 19:32 | 32.19129 | 34.79498 | 1281 ft | 136 kts | 188° |
| 2026-05-07 19:32 | 32.18226 | 34.79267 | 1364 ft | 127 kts | 197° |
| 2026-05-07 19:33 | 32.17416 | 34.78992 | 1413 ft | 115 kts | 199° |
| 2026-05-07 19:33 | 32.16672 | 34.78758 | 1517 ft | 109 kts | 195° |
| 2026-05-07 19:33 | 32.15872 | 34.78533 | 1428 ft | 126 kts | 201° |
| 2026-05-07 19:33 | 32.15031 | 34.78205 | 1177 ft | 125 kts | 203° |
| 2026-05-07 19:34 | 32.14245 | 34.77860 | 1101 ft | 118 kts | 204° |
| 2026-05-07 19:34 | 32.13471 | 34.77510 | 1030 ft | 119 kts | 203° |
| 2026-05-07 19:34 | 32.12720 | 34.77179 | 1022 ft | 114 kts | 202° |
| 2026-05-07 19:34 | 32.11971 | 34.76821 | 946 ft | 117 kts | 205° |
| 2026-05-07 19:35 | 32.11213 | 34.76512 | 910 ft | 114 kts | 197° |
| 2026-05-07 19:35 | 32.10549 | 34.76827 | 999 ft | 117 kts | 112° |
| 2026-05-07 19:35 | 32.10321 | 34.77706 | 1251 ft | 109 kts | 94° |
| 2026-05-07 19:35 | 32.10235 | 34.78553 | 1365 ft | 105 kts | 85° |
| 2026-05-07 19:36 | 32.10239 | 34.79449 | 1332 ft | 115 kts | 81° |
| 2026-05-07 19:36 | 32.10181 | 34.80405 | 1377 ft | 118 kts | 89° |
| 2026-05-07 19:36 | 32.10137 | 34.81373 | 1415 ft | 118 kts | 83° |
| 2026-05-07 19:36 | 32.10183 | 34.82337 | 1429 ft | 118 kts | 76° |
| 2026-05-07 19:37 | 32.10244 | 34.83295 | 1516 ft | 115 kts | 86° |
| 2026-05-07 19:37 | 32.10180 | 34.84294 | 1375 ft | 129 kts | 85° |
| 2026-05-07 19:37 | 32.09941 | 34.85327 | 1302 ft | 139 kts | 127° |
| 2026-05-07 19:37 | 32.09691 | 34.86264 | 1262 ft | 125 kts | 56° |
| 2026-05-07 19:38 | 32.10408 | 34.86392 | 1256 ft | 118 kts | 326° |
| 2026-05-07 19:38 | 32.10583 | 34.85445 | 1236 ft | 130 kts | 259° |
| 2026-05-07 19:38 | 32.10280 | 34.84518 | 1329 ft | 115 kts | 242° |
| 2026-05-07 19:38 | 32.09538 | 34.84213 | 1348 ft | 130 kts | 161° |
| 2026-05-07 19:39 | 32.08676 | 34.84569 | 1381 ft | 131 kts | 159° |
| 2026-05-07 19:39 | 32.07797 | 34.84865 | 1261 ft | 127 kts | 169° |
| 2026-05-07 19:39 | 32.06967 | 34.85024 | 1181 ft | 118 kts | 170° |
| 2026-05-07 19:39 | 32.06136 | 34.85170 | 1144 ft | 120 kts | 171° |
| 2026-05-07 19:40 | 32.05313 | 34.85277 | 1124 ft | 118 kts | 172° |
| 2026-05-07 19:40 | 32.04487 | 34.85384 | 1066 ft | 119 kts | 171° |
| 2026-05-07 19:40 | 32.03670 | 34.85555 | 1002 ft | 120 kts | 165° |
| 2026-05-07 19:40 | 32.02840 | 34.85815 | 857 ft | 125 kts | 163° |
| 2026-05-07 19:41 | 32.02003 | 34.86160 | 599 ft | 129 kts | 155° |
| 2026-05-07 19:41 | 32.01355 | 34.86817 | 486 ft | 115 kts | 122° |
| 2026-05-07 19:41 | 32.00948 | 34.87577 | 409 ft | 110 kts | 116° |
| 2026-05-07 19:41 | 32.00547 | 34.88377 | 412 ft | 114 kts | 118° |
| 2026-05-07 19:42 | 32.00126 | 34.89158 | 694 ft | 118 kts | 122° |
| 2026-05-07 19:42 | 31.99422 | 34.89661 | 968 ft | 129 kts | 161° |
| 2026-05-07 19:42 | 31.98572 | 34.89924 | 1098 ft | 124 kts | 162° |
| 2026-05-07 19:42 | 31.97750 | 34.90208 | 1209 ft | 124 kts | 164° |
| 2026-05-07 19:43 | 31.96911 | 34.90514 | 1248 ft | 128 kts | 157° |
| 2026-05-07 19:43 | 31.96035 | 34.90606 | 1296 ft | 134 kts | 187° |
| 2026-05-07 19:43 | 31.95097 | 34.90369 | 1299 ft | 137 kts | 195° |
| 2026-05-07 19:43 | 31.94168 | 34.90088 | 1347 ft | 138 kts | 194° |
| 2026-05-07 19:44 | 31.93186 | 34.89859 | 1198 ft | 143 kts | 192° |
| 2026-05-07 19:44 | 31.92266 | 34.89605 | 1146 ft | 127 kts | 197° |
| 2026-05-07 19:44 | 31.91426 | 34.89292 | 1041 ft | 134 kts | 198° |
| 2026-05-07 19:44 | 31.90560 | 34.88941 | 911 ft | 124 kts | 200° |
| 2026-05-07 19:45 | 31.89811 | 34.88619 | 690 ft | 103 kts | 199° |
| 2026-05-07 19:45 | 31.89180 | 34.88460 | 438 ft | 85 kts | 184° |
| 2026-05-07 19:45 | 31.88660 | 34.88564 | 320 ft | 61 kts | 164° |
| 2026-05-07 19:45 | 31.88361 | 34.88670 | 334 ft | 32 kts | 166° |
| 2026-05-07 19:46 | 31.88205 | 34.88699 | 346 ft | 10 kts | 196° |
| 2026-05-07 19:46 | 31.88193 | 34.88700 | 344 ft | 0 kts | 126° |